sensor_id;sensor_type;location;lat;lon;timestamp;temperature;humidity
12374;DHT22;6251;51.762;8.660;2023-09-30T01:00:19;12.40;99.90
12374;DHT22;6251;51.762;8.660;2023-09-30T01:10:20;12.30;99.90
12374;DHT22;6251;51.762;8.660;2023-09-30T02:51:53;12.00;99.90
12374;DHT22;6251;51.762;8.660;2023-09-30T04:02:56;11.70;99.90
12374;DHT22;6251;51.762;8.660;2023-09-30T04:12:59;11.70;99.90
12374;DHT22;6251;51.762;8.660;2023-09-30T04:22:59;11.60;99.90
12374;DHT22;6251;51.762;8.660;2023-09-30T04:33:01;11.50;99.90
12374;DHT22;6251;51.762;8.660;2023-09-30T04:43:04;11.30;99.90
12374;DHT22;6251;51.762;8.660;2023-09-30T04:53:05;11.20;99.90
12374;DHT22;6251;51.762;8.660;2023-09-30T05:03:06;11.00;99.90
12374;DHT22;6251;51.762;8.660;2023-09-30T05:13:07;10.90;99.90
12374;DHT22;6251;51.762;8.660;2023-09-30T05:23:08;10.80;99.90
12374;DHT22;6251;51.762;8.660;2023-09-30T05:33:08;10.70;99.90
12374;DHT22;6251;51.762;8.660;2023-09-30T05:43:13;10.70;99.90
12374;DHT22;6251;51.762;8.660;2023-09-30T05:53:14;10.70;99.90
12374;DHT22;6251;51.762;8.660;2023-09-30T06:03:15;10.70;99.90
12374;DHT22;6251;51.762;8.660;2023-09-30T06:13:16;10.70;99.90
12374;DHT22;6251;51.762;8.660;2023-09-30T06:23:17;10.70;99.90
12374;DHT22;6251;51.762;8.660;2023-09-30T06:33:17;10.60;99.90
12374;DHT22;6251;51.762;8.660;2023-09-30T06:43:18;10.70;99.90
12374;DHT22;6251;51.762;8.660;2023-09-30T06:53:19;10.80;99.90
12374;DHT22;6251;51.762;8.660;2023-09-30T07:03:22;11.00;99.90
12374;DHT22;6251;51.762;8.660;2023-09-30T07:13:22;11.20;99.90
12374;DHT22;6251;51.762;8.660;2023-09-30T07:23:23;11.40;99.90
12374;DHT22;6251;51.762;8.660;2023-09-30T07:33:23;11.60;99.90
12374;DHT22;6251;51.762;8.660;2023-09-30T07:43:24;11.90;99.90
12374;DHT22;6251;51.762;8.660;2023-09-30T07:53:24;12.20;99.90
12374;DHT22;6251;51.762;8.660;2023-09-30T08:03:25;12.50;99.90
12374;DHT22;6251;51.762;8.660;2023-09-30T08:13:26;12.70;99.90
12374;DHT22;6251;51.762;8.660;2023-09-30T08:23:26;13.00;99.90
12374;DHT22;6251;51.762;8.660;2023-09-30T08:33:27;13.30;99.90
12374;DHT22;6251;51.762;8.660;2023-09-30T08:43:31;13.60;99.90
12374;DHT22;6251;51.762;8.660;2023-09-30T08:53:35;14.00;99.90
12374;DHT22;6251;51.762;8.660;2023-09-30T09:03:36;14.40;99.90
12374;DHT22;6251;51.762;8.660;2023-09-30T09:23:48;14.70;99.90
12374;DHT22;6251;51.762;8.660;2023-09-30T09:33:50;14.70;99.90
12374;DHT22;6251;51.762;8.660;2023-09-30T09:43:51;14.80;99.90
12374;DHT22;6251;51.762;8.660;2023-09-30T09:53:51;15.00;99.90
12374;DHT22;6251;51.762;8.660;2023-09-30T10:03:52;15.00;99.90
12374;DHT22;6251;51.762;8.660;2023-09-30T10:13:57;15.70;99.90
12374;DHT22;6251;51.762;8.660;2023-09-30T10:24:28;16.00;99.90
12374;DHT22;6251;51.762;8.660;2023-09-30T10:34:29;16.50;99.90
12374;DHT22;6251;51.762;8.660;2023-09-30T10:44:34;17.00;99.90
12374;DHT22;6251;51.762;8.660;2023-09-30T10:54:34;17.20;99.90
12374;DHT22;6251;51.762;8.660;2023-09-30T11:04:55;17.20;99.90
12374;DHT22;6251;51.762;8.660;2023-09-30T11:15:01;17.70;99.90
12374;DHT22;6251;51.762;8.660;2023-09-30T11:25:02;17.70;99.90
12374;DHT22;6251;51.762;8.660;2023-09-30T11:35:08;17.40;99.90
12374;DHT22;6251;51.762;8.660;2023-09-30T11:45:19;17.20;99.90
12374;DHT22;6251;51.762;8.660;2023-09-30T11:55:21;17.20;99.90
12374;DHT22;6251;51.762;8.660;2023-09-30T12:05:22;17.30;99.90
12374;DHT22;6251;51.762;8.660;2023-09-30T12:15:22;17.30;99.90
12374;DHT22;6251;51.762;8.660;2023-09-30T12:25:23;17.40;99.90
12374;DHT22;6251;51.762;8.660;2023-09-30T12:35:25;18.00;99.90
12374;DHT22;6251;51.762;8.660;2023-09-30T12:45:26;18.30;99.90
12374;DHT22;6251;51.762;8.660;2023-09-30T12:55:26;18.80;99.90
12374;DHT22;6251;51.762;8.660;2023-09-30T13:05:27;19.10;99.90
12374;DHT22;6251;51.762;8.660;2023-09-30T13:15:29;19.30;99.90
12374;DHT22;6251;51.762;8.660;2023-09-30T13:25:30;19.40;99.90
12374;DHT22;6251;51.762;8.660;2023-09-30T13:35:31;19.50;99.90
12374;DHT22;6251;51.762;8.660;2023-09-30T13:45:32;19.80;99.90
12374;DHT22;6251;51.762;8.660;2023-09-30T13:55:32;20.00;99.90
12374;DHT22;6251;51.762;8.660;2023-09-30T14:05:33;20.00;99.90
12374;DHT22;6251;51.762;8.660;2023-09-30T14:15:33;20.00;99.90
12374;DHT22;6251;51.762;8.660;2023-09-30T14:25:34;19.90;99.90
12374;DHT22;6251;51.762;8.660;2023-09-30T14:35:34;19.10;99.90
12374;DHT22;6251;51.762;8.660;2023-09-30T14:45:39;18.70;99.90
12374;DHT22;6251;51.762;8.660;2023-09-30T14:55:40;18.60;99.90
12374;DHT22;6251;51.762;8.660;2023-09-30T15:05:41;18.40;99.90
12374;DHT22;6251;51.762;8.660;2023-09-30T15:15:41;18.20;99.90
12374;DHT22;6251;51.762;8.660;2023-09-30T15:25:43;18.10;99.90
12374;DHT22;6251;51.762;8.660;2023-09-30T15:35:43;17.90;99.90
12374;DHT22;6251;51.762;8.660;2023-09-30T15:45:44;17.70;99.90
12374;DHT22;6251;51.762;8.660;2023-09-30T15:55:45;17.60;99.90
12374;DHT22;6251;51.762;8.660;2023-09-30T16:05:46;17.50;99.90
12374;DHT22;6251;51.762;8.660;2023-09-30T16:15:46;17.40;99.90
12374;DHT22;6251;51.762;8.660;2023-09-30T16:25:48;17.20;99.90
12374;DHT22;6251;51.762;8.660;2023-09-30T16:35:49;16.70;99.90
12374;DHT22;6251;51.762;8.660;2023-09-30T16:45:52;16.20;99.90
12374;DHT22;6251;51.762;8.660;2023-09-30T16:55:52;15.70;99.90
12374;DHT22;6251;51.762;8.660;2023-09-30T17:05:53;15.30;99.90
12374;DHT22;6251;51.762;8.660;2023-09-30T17:15:54;15.00;99.90
12374;DHT22;6251;51.762;8.660;2023-09-30T17:26:04;14.60;99.90
12374;DHT22;6251;51.762;8.660;2023-09-30T17:36:05;14.40;99.90
12374;DHT22;6251;51.762;8.660;2023-09-30T17:46:08;14.10;99.90
12374;DHT22;6251;51.762;8.660;2023-09-30T17:56:17;14.00;99.90
12374;DHT22;6251;51.762;8.660;2023-09-30T18:06:17;13.90;99.90
12374;DHT22;6251;51.762;8.660;2023-09-30T18:16:18;13.80;99.90
12374;DHT22;6251;51.762;8.660;2023-09-30T18:26:19;13.70;99.90
12374;DHT22;6251;51.762;8.660;2023-09-30T18:36:20;13.60;99.90
12374;DHT22;6251;51.762;8.660;2023-09-30T18:46:20;13.60;99.90
12374;DHT22;6251;51.762;8.660;2023-09-30T18:56:21;13.60;99.90
12374;DHT22;6251;51.762;8.660;2023-09-30T19:06:22;13.50;99.90
12374;DHT22;6251;51.762;8.660;2023-09-30T19:16:22;13.50;99.90
12374;DHT22;6251;51.762;8.660;2023-09-30T19:26:24;13.40;99.90
12374;DHT22;6251;51.762;8.660;2023-09-30T19:36:25;13.10;99.90
12374;DHT22;6251;51.762;8.660;2023-09-30T19:46:25;13.10;99.90
12374;DHT22;6251;51.762;8.660;2023-09-30T19:56:26;13.10;99.90
12374;DHT22;6251;51.762;8.660;2023-09-30T20:06:27;13.10;99.90
12374;DHT22;6251;51.762;8.660;2023-09-30T20:16:28;13.10;99.90
12374;DHT22;6251;51.762;8.660;2023-09-30T20:26:30;13.00;99.90
12374;DHT22;6251;51.762;8.660;2023-09-30T20:36:32;13.10;99.90
12374;DHT22;6251;51.762;8.660;2023-09-30T20:46:33;13.10;99.90
12374;DHT22;6251;51.762;8.660;2023-09-30T20:56:34;13.20;99.90
12374;DHT22;6251;51.762;8.660;2023-09-30T23:09:49;12.20;99.90
